Time;durP1;ratioP1;P1;durP2;ratioP2;P2;SDS_P1;SDS_P2;PMS_P1;PMS_P2;Temp;Humidity;BMP_temperature;BMP_pressure;BME280_temperature;BME280_humidity;BME280_pressure;Samples;Min_cycle;Max_cycle;Signal;HPM_P1;HPM_P2
2022/11/19 00:01:55;;;;;;;74.20;52.67;;;15.60;74.70;;;;;;4987265;28;87725;-51
2022/11/19 00:04:21;;;;;;;72.68;52.90;;;15.60;75.00;;;;;;4994274;27;86222;-53
2022/11/19 00:06:46;;;;;;;72.22;52.70;;;15.60;74.70;;;;;;4982058;28;86589;-53
2022/11/19 00:09:13;;;;;;;72.10;52.30;;;15.60;74.50;;;;;;4992311;28;85720;-53
2022/11/19 00:14:23;;;;;;;71.95;52.35;;;15.60;74.50;;;;;;4988893;28;86704;-51
2022/11/19 00:16:49;;;;;;;72.53;52.67;;;15.60;75.40;;;;;;4993524;27;85511;-53
2022/11/19 00:19:14;;;;;;;71.75;52.33;;;15.60;74.50;;;;;;4989092;28;85821;-47
2022/11/19 00:21:40;;;;;;;72.10;51.70;;;15.50;74.60;;;;;;4987993;28;86302;-52
2022/11/19 00:24:06;;;;;;;71.63;52.17;;;15.50;74.80;;;;;;4996034;28;85602;-54
2022/11/19 00:26:32;;;;;;;72.47;52.47;;;15.50;74.60;;;;;;4993581;28;86427;-52
2022/11/19 00:28:58;;;;;;;71.80;52.47;;;15.50;74.60;;;;;;4988729;28;85755;-48
2022/11/19 00:31:24;;;;;;;71.50;52.10;;;15.50;74.60;;;;;;4987941;28;85938;-54
2022/11/19 00:33:49;;;;;;;73.13;52.13;;;15.50;74.70;;;;;;4988865;28;86660;-51
2022/11/19 00:36:15;;;;;;;72.93;52.13;;;15.50;74.60;;;;;;4990639;28;85214;-49
2022/11/19 00:38:42;;;;;;;70.90;51.97;;;15.60;74.40;;;;;;4995062;28;85614;-55
2022/11/19 00:41:08;;;;;;;71.65;52.50;;;15.50;74.10;;;;;;4988968;28;87068;-52
2022/11/19 00:43:46;;;;;;;72.38;52.17;;;15.40;74.50;;;;;;4994903;28;85323;-50
2022/11/19 00:46:16;;;;;;;72.88;52.58;;;15.50;74.50;;;;;;4993558;28;85712;-51
2022/11/19 00:48:42;;;;;;;72.03;52.65;;;15.50;74.50;;;;;;4986791;28;85287;-53
2022/11/19 00:51:08;;;;;;;71.80;51.47;;;15.50;74.60;;;;;;4985887;28;84970;-53
2022/11/19 00:53:34;;;;;;;70.78;52.03;;;15.50;74.30;;;;;;4992057;27;86967;-51
2022/11/19 00:56:06;;;;;;;72.57;52.63;;;15.40;74.50;;;;;;4987753;28;86503;-53
2022/11/19 00:58:32;;;;;;;72.53;52.47;;;15.40;74.50;;;;;;4988360;28;87232;-49
2022/11/19 01:00:58;;;;;;;72.10;52.17;;;15.40;74.50;;;;;;4984430;28;85252;-52
2022/11/19 01:03:24;;;;;;;73.15;52.65;;;15.40;74.60;;;;;;4997692;28;86078;-52
2022/11/19 01:05:50;;;;;;;70.80;52.03;;;15.40;74.50;;;;;;4980131;28;86959;-51
2022/11/19 01:08:16;;;;;;;70.68;51.55;;;15.30;74.70;;;;;;4994282;28;85921;-52
2022/11/19 01:10:42;;;;;;;73.50;52.85;;;15.30;74.60;;;;;;4980302;28;85835;-53
2022/11/19 01:15:52;;;;;;;71.78;52.45;;;15.30;74.50;;;;;;4985899;28;85258;-52
2022/11/19 01:18:18;;;;;;;73.53;51.88;;;15.30;74.30;;;;;;4989675;28;85930;-53
2022/11/19 01:20:44;;;;;;;72.15;51.63;;;15.40;74.50;;;;;;4985560;28;85424;-51
2022/11/19 01:23:10;;;;;;;71.53;51.92;;;15.40;74.30;;;;;;4986432;28;85300;-52
2022/11/19 01:25:36;;;;;;;73.35;51.92;;;15.40;74.30;;;;;;4989853;27;85969;-50
2022/11/19 01:28:03;;;;;;;71.18;52.13;;;15.40;74.30;;;;;;4984739;28;86958;-50
2022/11/19 01:30:28;;;;;;;70.80;52.55;;;15.30;74.20;;;;;;4983086;28;85854;-53
2022/11/19 01:32:54;;;;;;;71.40;52.20;;;15.30;74.30;;;;;;4987255;28;85690;-51
2022/11/19 01:35:20;;;;;;;71.13;51.90;;;15.30;74.30;;;;;;4984936;28;87329;-52
2022/11/19 01:37:46;;;;;;;72.85;52.30;;;15.30;74.20;;;;;;4986484;28;86211;-52
2022/11/19 01:40:12;;;;;;;72.93;52.17;;;15.40;74.20;;;;;;4988016;28;85323;-50
2022/11/19 01:42:50;;;;;;;73.07;51.80;;;15.30;74.10;;;;;;4993266;28;86105;-51
2022/11/19 01:45:40;;;;;;;73.13;52.33;;;15.30;74.00;;;;;;4984457;28;85181;-48
2022/11/19 01:48:11;;;;;;;72.05;52.20;;;15.30;74.10;;;;;;4986040;28;85577;-51
2022/11/19 01:50:46;;;;;;;71.03;52.05;;;15.30;74.00;;;;;;4983649;28;86418;-50
2022/11/19 01:53:13;;;;;;;70.35;51.58;;;15.30;74.10;;;;;;4988232;28;91961;-52
2022/11/19 01:55:41;;;;;;;71.00;52.38;;;15.20;74.00;;;;;;4988979;28;85453;-48
2022/11/19 01:58:07;;;;;;;69.65;51.28;;;15.30;74.10;;;;;;4989059;28;85351;-48
2022/11/19 02:00:33;;;;;;;71.22;51.92;;;15.20;74.00;;;;;;4995110;28;86228;-51
2022/11/19 02:02:59;;;;;;;71.47;51.92;;;15.20;74.00;;;;;;4991685;28;85702;-54
2022/11/19 02:05:26;;;;;;;70.85;51.67;;;15.20;73.90;;;;;;4983208;28;86146;-51
2022/11/19 02:07:57;;;;;;;71.43;51.92;;;15.20;74.00;;;;;;4990668;28;85591;-51
2022/11/19 02:10:38;;;;;;;71.00;51.77;;;15.20;74.10;;;;;;4988957;28;86711;-52
2022/11/19 02:13:42;;;;;;;69.87;51.50;;;15.20;73.90;;;;;;4988141;28;85765;-53
2022/11/19 02:16:31;;;;;;;68.82;50.92;;;15.20;73.90;;;;;;4988631;28;85563;-52
2022/11/19 02:19:26;;;;;;;72.05;51.88;;;15.20;74.00;;;;;;4982346;28;86081;-51
2022/11/19 02:22:06;;;;;;;70.97;51.63;;;15.20;73.90;;;;;;4982209;28;86351;-51
2022/11/19 02:24:53;;;;;;;70.22;51.20;;;15.20;73.90;;;;;;4988120;28;88761;-51
2022/11/19 02:27:37;;;;;;;71.07;52.03;;;15.20;74.00;;;;;;4984814;28;88146;-53
2022/11/19 02:30:23;;;;;;;70.63;51.65;;;15.20;73.90;;;;;;4986425;28;89438;-49
2022/11/19 02:32:57;;;;;;;71.60;51.70;;;15.20;73.70;;;;;;4981906;28;86673;-50
2022/11/19 02:35:34;;;;;;;71.88;51.53;;;15.20;73.80;;;;;;4984763;28;86129;-50
2022/11/19 02:38:37;;;;;;;71.47;52.25;;;15.10;73.70;;;;;;4978356;28;88126;-51
2022/11/19 02:41:34;;;;;;;72.13;51.95;;;15.10;73.80;;;;;;4987665;28;86394;-51
2022/11/19 02:47:06;;;;;;;71.65;52.03;;;15.10;73.50;;;;;;4987472;28;87298;-52
2022/11/19 02:49:34;;;;;;;70.07;51.42;;;15.10;73.90;;;;;;4989611;28;86398;-52
2022/11/19 02:52:02;;;;;;;69.70;51.22;;;15.10;73.60;;;;;;4992214;27;85380;-55
2022/11/19 02:54:27;;;;;;;70.25;51.92;;;15.10;73.50;;;;;;4992804;28;85710;-48
2022/11/19 02:56:57;;;;;;;71.15;51.58;;;15.10;73.40;;;;;;4987141;28;86030;-52
2022/11/19 03:05:18;;;;;;;69.82;51.40;;;15.10;73.50;;;;;;4986927;28;86444;-54
2022/11/19 03:07:44;;;;;;;70.70;51.47;;;15.10;73.70;;;;;;4986598;27;85804;-52
2022/11/19 03:10:11;;;;;;;70.82;51.67;;;15.10;73.60;;;;;;4992003;28;85930;-54
2022/11/19 03:12:48;;;;;;;70.82;52.00;;;15.10;73.40;;;;;;4995300;28;85490;-52
2022/11/19 03:18:50;;;;;;;69.30;51.13;;;15.10;73.50;;;;;;4993144;28;86203;-52
2022/11/19 03:21:25;;;;;;;69.85;51.15;;;15.10;73.60;;;;;;4986792;28;85782;-51
2022/11/19 03:23:59;;;;;;;69.22;51.03;;;15.10;73.40;;;;;;4988619;28;85875;-52
2022/11/19 03:26:49;;;;;;;69.65;51.40;;;15.00;73.40;;;;;;4988509;28;86818;-50
2022/11/19 03:29:15;;;;;;;70.32;51.55;;;15.10;73.30;;;;;;4986803;28;86194;-53
2022/11/19 03:31:50;;;;;;;70.20;51.20;;;15.10;73.20;;;;;;4993418;28;85860;-51
2022/11/19 03:34:19;;;;;;;70.95;52.10;;;15.10;73.20;;;;;;4981729;28;85885;-50
2022/11/19 03:36:47;;;;;;;68.72;50.80;;;15.10;73.00;;;;;;4994621;28;85475;-50
2022/11/19 03:39:16;;;;;;;69.63;51.30;;;15.10;73.20;;;;;;4985705;28;85856;-50
2022/11/19 03:41:45;;;;;;;69.90;51.45;;;15.10;73.20;;;;;;4990025;28;86099;-51
2022/11/19 03:44:25;;;;;;;70.18;51.53;;;15.10;73.40;;;;;;4980674;27;85728;-49
2022/11/19 03:46:59;;;;;;;69.95;51.25;;;15.10;72.90;;;;;;4991056;28;86497;-51
2022/11/19 03:49:36;;;;;;;72.18;51.78;;;15.00;73.10;;;;;;4993146;27;85702;-52
2022/11/19 03:52:10;;;;;;;70.57;51.35;;;15.00;73.20;;;;;;4992184;27;85390;-52
2022/11/19 03:54:37;;;;;;;69.45;51.42;;;15.00;73.80;;;;;;4991586;28;86522;-50
2022/11/19 03:57:05;;;;;;;69.97;50.95;;;15.10;73.10;;;;;;4995368;28;86991;-49
2022/11/19 03:59:31;;;;;;;69.88;51.42;;;15.10;72.90;;;;;;4983172;27;85917;-51
2022/11/19 04:02:02;;;;;;;70.15;51.47;;;15.00;72.90;;;;;;4990052;28;86381;-49
2022/11/19 04:04:37;;;;;;;69.10;50.58;;;15.10;72.90;;;;;;4989727;28;87899;-52
2022/11/19 04:07:05;;;;;;;71.90;51.33;;;15.10;73.00;;;;;;4997377;28;85669;-51
2022/11/19 04:09:30;;;;;;;69.72;51.63;;;15.00;72.90;;;;;;4990696;28;86755;-51
2022/11/19 04:11:56;;;;;;;70.13;51.65;;;15.00;72.90;;;;;;4988697;28;85433;-54
2022/11/19 04:14:22;;;;;;;71.25;52.20;;;15.00;73.00;;;;;;4986808;28;86332;-54
2022/11/19 04:16:47;;;;;;;70.60;51.15;;;15.00;72.90;;;;;;4985603;28;87076;-54
2022/11/19 04:19:13;;;;;;;69.20;51.45;;;15.00;72.80;;;;;;4988480;28;85862;-52
2022/11/19 04:21:39;;;;;;;69.80;51.60;;;15.00;72.80;;;;;;4993978;28;87652;-53
2022/11/19 04:24:05;;;;;;;71.00;51.90;;;15.00;72.90;;;;;;4984979;28;86310;-54
2022/11/19 04:26:31;;;;;;;69.30;51.03;;;15.00;72.90;;;;;;4991410;28;86904;-49
2022/11/19 04:28:56;;;;;;;70.82;51.85;;;15.00;72.80;;;;;;4998349;28;86028;-51
2022/11/19 04:31:22;;;;;;;69.70;51.67;;;15.00;72.70;;;;;;4993393;28;86793;-52
2022/11/19 04:33:48;;;;;;;69.50;51.08;;;15.00;72.50;;;;;;4989191;28;85850;-48
2022/11/19 04:36:13;;;;;;;69.43;51.85;;;15.00;72.70;;;;;;4988987;28;86993;-49
2022/11/19 04:38:39;;;;;;;70.30;51.42;;;15.00;72.60;;;;;;4995147;28;86105;-52
2022/11/19 04:41:04;;;;;;;69.10;51.15;;;15.00;72.50;;;;;;4987480;28;85937;-51
2022/11/19 04:43:30;;;;;;;69.35;51.47;;;15.00;72.50;;;;;;4987705;28;87530;-52
2022/11/19 04:45:56;;;;;;;69.18;51.15;;;15.00;72.60;;;;;;4986808;28;86359;-51
2022/11/19 04:48:21;;;;;;;70.07;51.25;;;15.00;72.70;;;;;;4988757;28;91144;-51
2022/11/19 04:50:47;;;;;;;71.40;51.45;;;15.00;72.70;;;;;;4994042;28;87081;-53
2022/11/19 04:53:13;;;;;;;70.57;51.83;;;15.00;72.60;;;;;;4993858;28;85185;-52
2022/11/19 04:55:38;;;;;;;69.38;50.70;;;15.00;72.70;;;;;;4986478;28;85749;-54
2022/11/19 04:58:04;;;;;;;69.47;51.05;;;15.00;72.80;;;;;;4990281;28;86686;-51
2022/11/19 05:00:30;;;;;;;69.53;51.03;;;15.00;72.60;;;;;;4986996;28;85907;-51
2022/11/19 05:02:55;;;;;;;68.95;51.28;;;15.00;72.60;;;;;;4993352;28;86863;-50
2022/11/19 05:05:21;;;;;;;69.95;51.05;;;14.90;72.60;;;;;;5000661;28;85467;-50
2022/11/19 05:07:46;;;;;;;70.22;51.67;;;14.90;72.50;;;;;;4982438;28;85182;-52
2022/11/19 05:10:12;;;;;;;69.13;51.17;;;15.00;72.60;;;;;;4989171;28;91144;-50
2022/11/19 05:12:38;;;;;;;69.60;50.88;;;15.00;72.60;;;;;;4995313;28;85487;-53
2022/11/19 05:15:04;;;;;;;69.57;51.42;;;14.90;72.40;;;;;;4988798;28;86219;-51
2022/11/19 05:17:30;;;;;;;68.95;51.03;;;14.90;72.30;;;;;;4987726;28;85785;-49
2022/11/19 05:19:58;;;;;;;70.22;51.00;;;14.90;72.50;;;;;;4987336;28;86043;-50
2022/11/19 05:22:23;;;;;;;69.70;51.20;;;15.00;72.50;;;;;;4991665;28;85351;-53
2022/11/19 05:24:49;;;;;;;69.32;51.15;;;15.00;72.50;;;;;;4992483;28;88990;-53
2022/11/19 05:27:15;;;;;;;69.28;51.10;;;15.00;72.30;;;;;;4988902;28;85577;-54
2022/11/19 05:29:40;;;;;;;70.00;51.17;;;15.00;72.40;;;;;;4983556;28;86533;-54
2022/11/19 05:32:06;;;;;;;69.70;50.95;;;15.00;72.20;;;;;;4988800;28;87313;-51
2022/11/19 05:34:32;;;;;;;68.88;51.03;;;15.00;72.50;;;;;;4986226;28;85605;-52
2022/11/19 05:36:57;;;;;;;69.43;50.75;;;15.00;72.40;;;;;;4983527;28;86298;-50
2022/11/19 05:39:23;;;;;;;68.65;50.85;;;15.00;72.50;;;;;;4989958;28;85541;-54
2022/11/19 05:41:49;;;;;;;70.15;50.88;;;14.90;72.50;;;;;;4984844;28;86600;-50
2022/11/19 05:44:15;;;;;;;70.95;50.15;;;14.90;72.40;;;;;;4986840;28;87972;-51
2022/11/19 05:46:40;;;;;;;70.03;51.05;;;14.90;72.40;;;;;;4987240;28;85848;-54
2022/11/19 05:49:06;;;;;;;69.97;50.50;;;14.90;72.60;;;;;;4995476;28;85711;-52
2022/11/19 05:51:32;;;;;;;68.72;50.63;;;14.90;72.50;;;;;;4987955;28;85534;-51
2022/11/19 05:53:57;;;;;;;69.53;50.67;;;15.00;72.40;;;;;;4989297;28;86843;-50
2022/11/19 05:56:23;;;;;;;69.55;51.13;;;15.00;72.30;;;;;;4987921;28;87434;-50
2022/11/19 05:58:48;;;;;;;69.45;50.88;;;15.00;72.40;;;;;;4994196;28;89842;-53
2022/11/19 06:01:15;;;;;;;70.15;51.00;;;14.90;73.00;;;;;;4993466;28;86389;-53
2022/11/19 06:03:40;;;;;;;69.97;51.15;;;15.00;72.40;;;;;;4985680;28;85805;-55
2022/11/19 06:06:07;;;;;;;69.82;51.03;;;15.00;72.30;;;;;;4981770;28;85943;-53
2022/11/19 06:08:33;;;;;;;70.63;51.08;;;15.00;72.30;;;;;;4986296;28;87145;-50
2022/11/19 06:11:03;;;;;;;70.28;50.88;;;15.00;72.30;;;;;;4987729;28;87029;-53
2022/11/19 06:13:28;;;;;;;68.28;50.35;;;14.90;72.40;;;;;;4987704;28;85437;-56
2022/11/19 06:15:54;;;;;;;70.05;51.38;;;14.90;72.50;;;;;;4983422;28;85201;-53
2022/11/19 06:18:20;;;;;;;70.22;50.90;;;14.90;72.40;;;;;;4993665;28;86380;-52
2022/11/19 06:20:45;;;;;;;68.75;50.17;;;14.90;72.30;;;;;;4998188;28;85790;-52
2022/11/19 06:23:11;;;;;;;68.95;50.20;;;14.90;72.20;;;;;;4993372;28;86201;-55
2022/11/19 06:25:37;;;;;;;69.70;51.03;;;14.90;72.50;;;;;;4992208;28;88227;-51
2022/11/19 06:28:02;;;;;;;69.65;50.70;;;14.90;72.50;;;;;;4993256;28;85030;-49
2022/11/19 06:30:28;;;;;;;69.57;50.72;;;14.90;72.60;;;;;;4987333;28;88035;-51
2022/11/19 06:32:54;;;;;;;71.70;51.08;;;14.90;72.70;;;;;;4991825;28;85317;-51
2022/11/19 06:35:19;;;;;;;69.55;50.63;;;14.90;72.40;;;;;;4997742;28;85859;-51
2022/11/19 06:37:45;;;;;;;71.60;50.97;;;14.90;72.50;;;;;;4990145;28;86732;-52
2022/11/19 06:40:11;;;;;;;69.43;51.00;;;14.90;72.30;;;;;;5000072;28;85377;-51
2022/11/19 06:42:37;;;;;;;70.53;50.67;;;15.00;72.30;;;;;;4988696;28;85317;-55
2022/11/19 06:45:08;;;;;;;71.30;50.67;;;14.90;72.30;;;;;;5000287;28;84972;-51
2022/11/19 06:47:34;;;;;;;72.32;50.83;;;14.90;72.20;;;;;;4989591;28;88888;-53
2022/11/19 06:50:00;;;;;;;68.50;50.42;;;14.90;72.50;;;;;;4992096;28;85106;-52
2022/11/19 06:52:26;;;;;;;70.13;50.55;;;14.90;72.40;;;;;;4992422;28;85535;-52
2022/11/19 06:54:52;;;;;;;69.75;50.67;;;14.90;72.40;;;;;;4997764;28;85871;-53
2022/11/19 06:57:17;;;;;;;69.63;50.85;;;15.00;72.40;;;;;;4994811;28;85263;-52
2022/11/19 06:59:43;;;;;;;68.90;50.40;;;14.90;72.40;;;;;;4987568;28;89427;-52
2022/11/19 07:02:10;;;;;;;70.50;50.53;;;14.90;72.40;;;;;;4985671;28;86327;-54
2022/11/19 07:04:36;;;;;;;70.18;51.08;;;14.90;72.80;;;;;;4990500;28;86735;-54
2022/11/19 07:07:03;;;;;;;69.05;50.75;;;14.90;72.40;;;;;;4987476;28;86213;-51
2022/11/19 07:09:28;;;;;;;71.20;51.28;;;14.90;72.40;;;;;;4992037;28;86896;-52
2022/11/19 07:11:54;;;;;;;72.53;50.55;;;14.90;72.50;;;;;;4995715;28;85781;-54
2022/11/19 07:14:20;;;;;;;69.45;50.53;;;14.90;72.50;;;;;;4987626;28;85650;-54
2022/11/19 07:16:45;;;;;;;69.80;50.35;;;14.90;72.40;;;;;;4991640;28;87540;-51
2022/11/19 07:19:11;;;;;;;68.53;50.70;;;14.90;73.10;;;;;;4986203;28;86682;-54
2022/11/19 07:21:37;;;;;;;69.30;50.65;;;14.90;72.30;;;;;;4990756;28;85485;-52
2022/11/19 07:24:05;;;;;;;70.85;50.53;;;14.90;72.30;;;;;;4995069;28;86670;-51
2022/11/19 07:26:33;;;;;;;69.80;50.65;;;14.90;72.40;;;;;;4982212;28;85638;-54
2022/11/19 07:29:04;;;;;;;68.97;50.30;;;14.90;72.30;;;;;;5001540;28;85194;-55
2022/11/19 07:31:31;;;;;;;69.68;50.28;;;14.90;72.30;;;;;;4987709;28;86453;-53
2022/11/19 07:33:56;;;;;;;68.93;50.30;;;14.90;73.00;;;;;;4981294;28;85417;-53
2022/11/19 07:36:22;;;;;;;77.70;51.08;;;14.90;72.30;;;;;;4987475;28;85341;-51
2022/11/19 07:38:49;;;;;;;71.82;50.75;;;14.90;72.30;;;;;;4986359;28;91569;-52
2022/11/19 07:43:59;;;;;;;68.90;50.50;;;15.00;72.80;;;;;;4991271;28;89346;-52
2022/11/19 07:46:25;;;;;;;73.88;50.40;;;14.90;72.70;;;;;;4983181;28;86202;-52
2022/11/19 07:48:53;;;;;;;72.63;50.45;;;14.90;73.00;;;;;;4987799;28;86457;-53
2022/11/19 07:51:19;;;;;;;72.38;51.08;;;14.90;73.10;;;;;;4987798;28;85062;-52
2022/11/19 07:53:44;;;;;;;77.50;50.38;;;15.00;73.10;;;;;;4997674;28;85600;-50
2022/11/19 07:56:10;;;;;;;73.18;50.88;;;15.00;73.40;;;;;;4980134;28;86779;-52
2022/11/19 07:58:35;;;;;;;75.55;51.05;;;15.00;73.70;;;;;;4979861;28;86707;-50
2022/11/19 08:01:13;;;;;;;74.07;50.80;;;15.00;73.50;;;;;;4983663;28;85927;-51
2022/11/19 08:03:41;;;;;;;74.85;50.35;;;15.00;73.40;;;;;;4986007;28;86177;-51
2022/11/19 08:06:07;;;;;;;71.57;50.38;;;15.00;73.40;;;;;;4988275;28;85204;-54
2022/11/19 08:08:33;;;;;;;72.68;51.25;;;14.90;73.20;;;;;;4982215;28;86800;-53
2022/11/19 08:11:03;;;;;;;69.10;50.63;;;14.90;73.40;;;;;;4988894;28;86951;-52
2022/11/19 08:13:29;;;;;;;73.32;51.25;;;14.90;73.50;;;;;;4992361;27;87006;-55
2022/11/19 08:15:59;;;;;;;72.35;49.92;;;14.90;73.40;;;;;;4990277;28;89949;-53
2022/11/19 08:18:25;;;;;;;74.60;50.33;;;14.90;73.50;;;;;;4990646;28;90177;-51
2022/11/19 08:20:51;;;;;;;70.45;50.47;;;14.90;73.50;;;;;;4984238;28;85143;-52
2022/11/19 08:23:17;;;;;;;71.97;50.80;;;14.90;73.60;;;;;;4977626;28;87318;-53
2022/11/19 08:25:43;;;;;;;70.30;50.22;;;14.90;73.80;;;;;;4986762;28;86526;-53
2022/11/19 08:28:10;;;;;;;72.95;50.67;;;14.90;74.20;;;;;;4985761;28;85626;-51
2022/11/19 08:30:38;;;;;;;73.05;51.95;;;14.90;74.20;;;;;;4987141;28;85442;-49
2022/11/19 08:33:04;;;;;;;79.45;51.83;;;14.90;74.40;;;;;;4991372;28;85699;-50
2022/11/19 08:35:30;;;;;;;94.45;52.65;;;14.90;74.50;;;;;;4987281;28;85109;-51
2022/11/19 08:37:57;;;;;;;85.25;53.42;;;14.90;74.10;;;;;;4984240;28;85632;-51
2022/11/19 08:40:23;;;;;;;83.07;52.40;;;15.00;74.40;;;;;;4966533;28;87261;-53
2022/11/19 08:43:01;;;;;;;82.43;52.40;;;15.00;74.90;;;;;;4985470;28;88319;-47
2022/11/19 08:45:29;;;;;;;81.30;53.05;;;15.10;75.20;;;;;;4983672;28;86167;-51
2022/11/19 08:47:56;;;;;;;84.70;52.92;;;15.20;75.10;;;;;;4989254;28;85643;-51
2022/11/19 08:50:23;;;;;;;92.10;53.45;;;15.30;75.60;;;;;;4990115;28;85421;-57
2022/11/19 08:52:55;;;;;;;77.70;52.50;;;15.40;76.20;;;;;;5003865;28;87311;-53
2022/11/19 08:55:21;;;;;;;82.25;52.90;;;15.40;76.00;;;;;;4978458;28;86826;-52
2022/11/19 08:57:47;;;;;;;81.53;53.72;;;15.50;75.70;;;;;;4980658;28;86894;-49
2022/11/19 09:00:13;;;;;;;80.13;53.58;;;15.50;75.80;;;;;;4981651;28;87919;-51
2022/11/19 09:02:39;;;;;;;81.57;53.28;;;15.40;75.50;;;;;;4988011;28;86361;-49
2022/11/19 09:05:05;;;;;;;80.75;53.03;;;15.40;75.20;;;;;;4990699;28;85774;-51
2022/11/19 09:07:30;;;;;;;81.03;53.45;;;15.30;75.30;;;;;;4973526;28;85761;-50
2022/11/19 09:09:56;;;;;;;80.72;52.95;;;15.20;75.20;;;;;;4987045;28;87650;-50
2022/11/19 09:12:22;;;;;;;78.43;52.60;;;15.20;75.20;;;;;;4976338;28;86942;-52
2022/11/19 09:14:49;;;;;;;78.68;53.05;;;15.20;75.40;;;;;;4975354;28;86022;-53
2022/11/19 09:17:15;;;;;;;77.57;52.80;;;15.20;74.90;;;;;;4981433;28;87108;-55
2022/11/19 09:19:40;;;;;;;78.85;52.70;;;15.20;74.70;;;;;;4984825;28;86555;-56
2022/11/19 09:22:06;;;;;;;82.88;52.80;;;15.30;75.30;;;;;;4977111;27;86173;-54
2022/11/19 09:24:32;;;;;;;76.70;52.63;;;15.40;75.00;;;;;;4978173;28;85325;-50
2022/11/19 09:26:58;;;;;;;78.97;53.17;;;15.40;74.90;;;;;;4989446;28;85580;-52
2022/11/19 09:29:23;;;;;;;80.45;52.80;;;15.40;74.70;;;;;;4973905;28;88314;-49
2022/11/19 09:31:49;;;;;;;78.90;52.95;;;15.30;74.60;;;;;;4973224;28;86531;-54
2022/11/19 09:34:14;;;;;;;77.85;52.65;;;15.30;74.60;;;;;;4988738;27;85537;-55
2022/11/19 09:36:40;;;;;;;78.78;52.53;;;15.30;74.30;;;;;;4985261;28;85452;-51
2022/11/19 09:39:06;;;;;;;75.38;51.72;;;15.30;74.20;;;;;;4978282;28;85726;-50
2022/11/19 09:42:12;;;;;;;77.18;51.97;;;15.30;74.00;;;;;;4983475;28;89337;-50
2022/11/19 09:44:46;;;;;;;75.80;52.38;;;15.30;74.00;;;;;;5005894;27;91769;-49
2022/11/19 09:47:47;;;;;;;77.07;52.30;;;15.30;73.80;;;;;;4990244;28;85271;-49
2022/11/19 09:50:20;;;;;;;75.30;52.22;;;15.30;73.60;;;;;;4986179;28;85238;-50
2022/11/19 09:52:53;;;;;;;77.15;52.55;;;15.30;73.60;;;;;;4990543;27;85936;-52
2022/11/19 09:55:28;;;;;;;75.03;52.33;;;15.30;73.40;;;;;;4982744;28;90601;-54
2022/11/19 09:57:56;;;;;;;76.53;52.38;;;15.30;73.30;;;;;;4988731;27;85965;-50
2022/11/19 10:00:28;;;;;;;76.95;52.13;;;15.30;72.90;;;;;;4979731;28;87155;-54
2022/11/19 10:02:57;;;;;;;77.97;52.60;;;15.30;73.00;;;;;;4984462;28;89289;-51
2022/11/19 10:05:51;;;;;;;76.38;52.55;;;15.30;72.90;;;;;;4986439;28;85180;-55
2022/11/19 10:08:39;;;;;;;75.30;52.75;;;15.30;72.90;;;;;;4991426;28;85364;-52
2022/11/19 10:11:25;;;;;;;74.97;52.65;;;15.30;72.80;;;;;;4983018;27;87140;-52
2022/11/19 10:14:12;;;;;;;74.13;51.50;;;15.40;72.70;;;;;;4986940;28;85629;-51
2022/11/19 10:17:02;;;;;;;78.60;52.47;;;15.40;72.60;;;;;;4979079;28;86552;-49
2022/11/19 10:19:53;;;;;;;77.28;52.15;;;15.40;72.50;;;;;;4984962;28;85445;-53
2022/11/19 10:22:24;;;;;;;77.55;52.13;;;15.40;72.40;;;;;;4982357;28;86809;-50
2022/11/19 10:24:55;;;;;;;;;;;15.40;72.20;;;;;;4985307;28;87873;-55
2022/11/19 10:27:39;;;;;;;73.60;51.50;;;15.40;72.30;;;;;;4995657;28;85514;-52
2022/11/19 10:30:13;;;;;;;75.88;51.88;;;15.40;72.20;;;;;;4994310;28;85640;-56
2022/11/19 10:32:56;;;;;;;77.72;52.25;;;15.40;72.10;;;;;;4978625;27;86342;-53
2022/11/19 10:35:29;;;;;;;73.95;51.55;;;15.40;71.90;;;;;;4980350;28;85534;-53
2022/11/19 10:38:03;;;;;;;76.28;51.15;;;15.50;71.80;;;;;;4983577;28;89585;-51
2022/11/19 10:40:45;;;;;;;72.55;51.72;;;15.50;71.90;;;;;;4988497;28;85560;-53
2022/11/19 10:43:31;;;;;;;73.55;52.17;;;15.50;71.70;;;;;;4984005;28;90565;-48
2022/11/19 10:45:59;;;;;;;76.30;52.17;;;15.50;71.60;;;;;;4983267;28;86058;-53
2022/11/19 10:48:43;;;;;;;73.20;51.35;;;15.50;71.60;;;;;;4989385;28;85051;-50
2022/11/19 10:51:21;;;;;;;73.55;51.92;;;15.50;71.50;;;;;;4988462;28;85807;-50
2022/11/19 10:53:47;;;;;;;74.20;51.83;;;15.50;71.50;;;;;;4978359;28;87678;-52
2022/11/19 10:56:35;;;;;;;76.72;52.28;;;15.50;71.40;;;;;;4979179;28;85402;-49
2022/11/19 10:59:15;;;;;;;74.13;51.85;;;15.50;71.30;;;;;;4981373;28;86056;-50
2022/11/19 11:01:43;;;;;;;76.03;52.67;;;15.50;71.40;;;;;;4982081;28;86384;-50
2022/11/19 11:04:14;;;;;;;75.00;52.03;;;15.50;71.30;;;;;;4991735;28;85439;-53
2022/11/19 11:06:57;;;;;;;73.93;51.78;;;15.50;71.30;;;;;;4992441;28;90080;-52
2022/11/19 11:09:31;;;;;;;74.03;51.65;;;15.50;71.40;;;;;;4987483;28;86225;-52
2022/11/19 11:15:07;;;;;;;74.57;52.22;;;15.50;71.30;;;;;;4992320;28;85060;-55
2022/11/19 11:17:35;;;;;;;74.28;52.28;;;15.60;71.20;;;;;;4985566;28;86680;-52
2022/11/19 11:20:03;;;;;;;75.60;52.58;;;15.60;71.10;;;;;;4977906;28;85815;-48
2022/11/19 11:22:29;;;;;;;73.93;51.65;;;15.60;71.10;;;;;;4989634;28;91100;-52
2022/11/19 11:24:56;;;;;;;74.47;51.45;;;15.60;71.10;;;;;;4989742;28;86457;-51
2022/11/19 11:27:33;;;;;;;74.28;51.95;;;15.60;71.10;;;;;;4985116;28;86744;-51
2022/11/19 11:30:11;;;;;;;73.15;51.75;;;15.60;71.00;;;;;;4986449;28;86072;-54
2022/11/19 11:32:38;;;;;;;73.78;51.80;;;15.60;70.80;;;;;;4991298;28;87832;-54
2022/11/19 11:35:05;;;;;;;75.38;51.80;;;15.60;70.90;;;;;;4980293;28;87038;-53
2022/11/19 11:37:31;;;;;;;74.40;51.90;;;15.60;70.90;;;;;;4987537;28;85995;-51
2022/11/19 11:39:58;;;;;;;75.15;51.75;;;15.70;70.90;;;;;;4987534;28;87047;-51
2022/11/19 11:42:27;;;;;;;74.55;52.10;;;15.70;70.90;;;;;;4981454;28;86819;-54
2022/11/19 11:45:02;;;;;;;72.57;51.60;;;15.70;70.70;;;;;;4992925;28;85228;-53
2022/11/19 11:47:34;;;;;;;76.28;51.60;;;15.70;70.80;;;;;;4985224;28;85883;-54
2022/11/19 11:50:02;;;;;;;75.45;51.78;;;15.70;71.90;;;;;;4986910;28;87275;-52
2022/11/19 11:52:45;;;;;;;76.30;52.10;;;15.70;71.10;;;;;;4978539;28;89219;-53
2022/11/19 11:55:22;;;;;;;72.82;51.85;;;15.70;71.10;;;;;;4987611;28;88797;-52
2022/11/19 11:57:54;;;;;;;73.60;52.03;;;15.70;71.00;;;;;;4982624;28;86443;-53
2022/11/19 12:00:42;;;;;;;74.28;51.58;;;15.70;70.90;;;;;;4988911;28;87677;-53
2022/11/19 12:03:10;;;;;;;76.55;51.70;;;15.80;71.70;;;;;;4985640;28;86306;-54
2022/11/19 12:05:41;;;;;;;74.05;51.53;;;15.80;71.60;;;;;;4977233;28;86303;-56
2022/11/19 12:08:14;;;;;;;72.45;51.85;;;15.70;71.50;;;;;;4981577;28;86926;-58
2022/11/19 12:11:03;;;;;;;73.95;51.60;;;15.70;71.50;;;;;;4977761;28;87261;-56
2022/11/19 12:13:50;;;;;;;71.95;51.15;;;15.70;71.50;;;;;;4982672;28;86368;-56
2022/11/19 12:16:22;;;;;;;76.40;52.25;;;15.60;71.50;;;;;;4979748;28;86088;-58
2022/11/19 12:19:06;;;;;;;;;;;15.60;71.70;;;;;;4993619;28;86277;-58
2022/11/19 12:21:49;;;;;;;73.40;51.75;;;15.70;71.60;;;;;;4994264;28;86021;-57
2022/11/19 12:24:29;;;;;;;75.97;51.25;;;15.70;71.50;;;;;;4995155;28;85385;-56
2022/11/19 12:27:14;;;;;;;73.30;51.33;;;15.70;71.60;;;;;;4988792;28;86033;-56
2022/11/19 12:30:05;;;;;;;73.18;51.40;;;15.60;71.40;;;;;;4989596;28;88053;-57
2022/11/19 12:32:45;;;;;;;;;;;15.60;71.40;;;;;;4989467;28;87024;-56
2022/11/19 12:35:48;;;;;;;73.68;51.42;;;15.60;71.40;;;;;;4994837;28;83593;-57
2022/11/19 12:38:26;;;;;;;72.55;51.17;;;15.60;71.40;;;;;;4991636;28;87557;-57
2022/11/19 12:41:21;;;;;;;73.45;51.20;;;15.60;71.50;;;;;;4987593;28;85844;-57
2022/11/19 12:44:00;;;;;;;72.15;51.50;;;15.60;71.40;;;;;;4992350;28;85730;-57
2022/11/19 12:46:35;;;;;;;72.93;51.17;;;15.60;71.30;;;;;;4980518;28;88870;-58
2022/11/19 12:49:25;;;;;;;72.75;51.85;;;15.60;71.40;;;;;;4982311;28;87761;-58
2022/11/19 12:52:06;;;;;;;73.35;51.80;;;15.60;71.40;;;;;;4980886;28;85627;-59
2022/11/19 12:54:37;;;;;;;72.15;50.67;;;15.60;71.30;;;;;;4993009;28;85622;-58
2022/11/19 12:57:34;;;;;;;74.72;51.13;;;15.60;71.30;;;;;;4986620;28;85352;-56
2022/11/19 13:00:12;;;;;;;72.75;51.33;;;15.60;71.20;;;;;;4987878;28;85645;-58
2022/11/19 13:03:03;;;;;;;74.82;51.40;;;15.50;71.20;;;;;;4979164;28;85852;-56
2022/11/19 13:05:47;;;;;;;71.87;51.00;;;15.60;71.40;;;;;;4986302;28;86371;-57
2022/11/19 13:08:17;;;;;;;73.20;51.60;;;15.60;71.20;;;;;;4981697;28;85932;-57
2022/11/19 13:10:48;;;;;;;71.97;50.85;;;15.60;71.20;;;;;;4987824;28;86464;-57